Hauptseite
METAR-TAF:

METAR-TAF

Flughäfen :

Flughafen Annecy

Annecy, Frankreich

Breite: 45-55-45N, Länge: 006-05-56E, Höhe: 463 m

Beobachtung

Neuester Wetterbericht von vor 30 Minuten, um 11:00 UTC
Wind 3 kt aus unterschiedlichen Richtungen
Temperatur 28°C
Luftfeuchtigkeit 40%
Luftdruck 1016 hPa
Sichtweite 10 km oder mehr
keine Wolken unter 1500 m und keine Kumulonimbus oder Gewitterwolken

METAR: LFLP 191100Z AUTO VRB03KT CAVOK 28/13 Q1016 NOSIG

Zeit: 13:30 (11:30 UTC)

Prognose

Neuester Wetterbericht von vor 3 Stunden und 30 Minuten, um 08:00 UTC
Gültige Prognose vom 19 um 09 UTC bis 20 um 09 UTC
Wind 5 kt aus West/Südwest
Sichtweite 10 km oder mehr
keine Wolken unter 1500 m und keine Kumulonimbus oder Gewitterwolken
Zeitweise
vom 19 um 20 UTC bis 20 um 08 UTC
Wind 2 kt aus unterschiedlichen Richtungen

TAF: LFLP 190800Z 1909/2009 24005KT CAVOK TEMPO 1920/2008 VRB02KT

Wetterbeobachtungen und Prognosen von mehr als 4000 Flughäfen (METAR und TAF Bericht).

Die verfügbaren Stationen werden durch gelbe und rote Markierungen auf der Karte dargestellt.

Führen Sie die Maus auf sie, um den Namen der Station zu sehen.

Darauf klicken, um die Beobachtung von Wetterbeobachtungen und Prognosen zu sehen.

Um die Karte zu ändern : klicken Sie auf den grünen Tasten mit einem schwarzen Kreuz Zum Vergrößern, auf den grünen Button mit einem Gedankenstrich zu verkleinern, oder auf die grünen Pfeile für benachbarte Karten.


METAR-TAF: